Preview of NWS' New Version of Forecast
This preview is not operational and should not be used for support decisions.

Terminal Aerodrome Forecast (TAF)

Issued by National Weather Service (NWS)

                            
000
FTUS43 KDMX 181901 AAA
TAFALO
TAF AMD
KALO 181901Z 1819/1918 31012KT P6SM SCT024
     FM182000 30008KT P6SM SCT025 BKN050
     FM190400 34006KT P6SM FEW250
     FM191600 10006KT P6SM SKC=